Time;durP1;ratioP1;P1;durP2;ratioP2;P2;SDS_P1;SDS_P2;PMS_P1;PMS_P2;Temp;Humidity;BMP_temperature;BMP_pressure;BME280_temperature;BME280_humidity;BME280_pressure;Samples;Min_cycle;Max_cycle;Signal;HPM_P1;HPM_P2
2021/06/08 00:00:16;;;;;;;;;;;24.90;35.30;;;;;;4973483;28;75202;-69
2021/06/08 00:02:42;;;;;;;;;;;24.80;35.20;;;;;;4973915;28;74444;-68
2021/06/08 00:05:08;;;;;;;;;;;24.80;35.40;;;;;;4970660;28;76407;-67
2021/06/08 00:07:33;;;;;;;;;;;24.80;35.60;;;;;;4973127;28;77219;-68
2021/06/08 00:09:59;;;;;;;;;;;24.80;36.30;;;;;;4973615;28;74477;-75
2021/06/08 00:12:25;;;;;;;;;;;24.70;35.90;;;;;;4973458;28;75209;-71
2021/06/08 00:14:50;;;;;;;;;;;24.60;36.10;;;;;;4973700;28;75617;-74
2021/06/08 00:17:16;;;;;;;;;;;24.60;36.30;;;;;;4971641;28;76372;-71
2021/06/08 00:19:41;;;;;;;;;;;24.50;36.40;;;;;;4972002;28;75535;-75
2021/06/08 00:22:07;;;;;;;;;;;24.50;36.60;;;;;;4973503;28;75309;-74
2021/06/08 00:24:32;;;;;;;;;;;24.50;36.70;;;;;;4973789;28;74989;-69
2021/06/08 00:26:58;;;;;;;;;;;24.40;37.00;;;;;;4971510;28;77850;-71
2021/06/08 00:29:24;;;;;;;;;;;24.40;37.30;;;;;;4973170;28;75447;-71
2021/06/08 00:31:49;;;;;;;;;;;24.40;37.50;;;;;;4973648;28;74494;-70
2021/06/08 00:34:15;;;;;;;;;;;24.30;37.60;;;;;;4973200;28;75196;-68
2021/06/08 00:36:40;;;;;;;;;;;24.30;37.60;;;;;;4973666;28;74456;-69
2021/06/08 00:39:06;;;;;;;;;;;24.20;37.90;;;;;;4973263;28;74621;-69
2021/06/08 00:41:33;;;;;;;;;;;24.10;38.20;;;;;;4972169;28;76541;-71
2021/06/08 00:44:01;;;;;;;;;;;24.00;38.00;;;;;;4973034;28;75653;-69
2021/06/08 00:46:27;;;;;;;;;;;24.00;38.00;;;;;;4971520;28;76502;-71
2021/06/08 00:48:53;;;;;;;;;;;23.90;38.20;;;;;;4971223;28;77991;-71
2021/06/08 00:51:18;;;;;;;;;;;23.90;38.20;;;;;;4972923;28;75735;-69
2021/06/08 00:53:44;;;;;;;;;;;23.90;38.40;;;;;;4971143;28;75628;-68
2021/06/08 00:56:10;;;;;;;;;;;23.90;38.50;;;;;;4972966;28;74530;-68
2021/06/08 00:58:35;;;;;;;;;;;23.90;38.40;;;;;;4972585;28;75481;-71
2021/06/08 01:01:01;;;;;;;;;;;23.90;38.60;;;;;;4971196;28;75385;-71
2021/06/08 01:03:27;;;;;;;;;;;23.90;38.60;;;;;;4972331;28;75310;-70
2021/06/08 01:05:54;;;;;;;;;;;23.80;38.90;;;;;;4972503;28;75536;-71
2021/06/08 01:08:20;;;;;;;;;;;23.70;38.80;;;;;;4971014;28;76081;-71
2021/06/08 01:10:45;;;;;;;;;;;23.70;39.00;;;;;;4971405;28;77408;-69
2021/06/08 01:13:11;;;;;;;;;;;23.60;39.10;;;;;;4971143;28;77048;-72
2021/06/08 01:15:37;;;;;;;;;;;23.70;39.20;;;;;;4972668;28;74951;-71
2021/06/08 01:18:03;;;;;;;;;;;23.50;39.50;;;;;;4974035;28;79290;-69
2021/06/08 01:20:30;;;;;;;;;;;23.60;39.70;;;;;;4974401;28;74689;-71
2021/06/08 01:22:55;;;;;;;;;;;23.50;39.70;;;;;;4974344;28;78723;-71
2021/06/08 01:25:21;;;;;;;;;;;23.40;39.50;;;;;;4975736;28;74577;-71
2021/06/08 01:27:47;;;;;;;;;;;23.40;39.50;;;;;;4974655;28;77381;-71
2021/06/08 01:30:13;;;;;;;;;;;23.40;39.60;;;;;;4974418;28;76277;-71
2021/06/08 01:32:40;;;;;;;;;;;23.40;39.80;;;;;;4975471;28;75220;-72
2021/06/08 01:35:06;;;;;;;;;;;23.40;41.50;;;;;;4974639;28;77708;-71
2021/06/08 01:37:32;;;;;;;;;;;23.30;42.10;;;;;;4974230;28;78266;-73
2021/06/08 01:39:58;;;;;;;;;;;23.10;42.10;;;;;;4975881;28;74549;-74
2021/06/08 01:42:24;;;;;;;;;;;23.00;41.70;;;;;;4974370;28;77210;-71
2021/06/08 01:44:50;;;;;;;;;;;23.00;41.70;;;;;;4975712;28;75083;-73
2021/06/08 01:47:15;;;;;;;;;;;22.90;42.00;;;;;;4975917;28;74474;-71
2021/06/08 01:49:41;;;;;;;;;;;22.90;41.50;;;;;;4975259;28;77132;-73
2021/06/08 01:52:29;;;;;;;;;;;22.90;41.50;;;;;;4974007;28;78331;-74
2021/06/08 01:55:02;;;;;;;;;;;22.90;41.50;;;;;;4974378;28;76123;-73
2021/06/08 01:57:27;;;;;;;;;;;22.90;41.80;;;;;;4974337;28;76349;-70
2021/06/08 02:00:07;;;;;;;;;;;22.90;42.90;;;;;;4975241;28;75139;-65
2021/06/08 02:02:46;;;;;;;;;;;22.90;41.90;;;;;;4973757;28;78144;-65
2021/06/08 02:05:17;;;;;;;;;;;22.80;41.70;;;;;;4975465;28;74690;-65
2021/06/08 02:07:43;;;;;;;;;;;22.80;41.70;;;;;;4975634;28;75183;-68
2021/06/08 02:10:09;;;;;;;;;;;22.70;41.80;;;;;;4975708;28;74412;-70
2021/06/08 02:12:34;;;;;;;;;;;22.70;41.90;;;;;;4973464;28;77174;-67
2021/06/08 02:15:11;;;;;;;;;;;22.70;42.20;;;;;;4973762;28;75288;-68
2021/06/08 02:17:43;;;;;;;;;;;22.60;42.30;;;;;;4975203;28;75777;-69
2021/06/08 02:20:12;;;;;;;;;;;22.60;42.60;;;;;;4974044;28;77224;-70
2021/06/08 02:22:40;;;;;;;;;;;22.60;42.70;;;;;;4974888;28;75797;-72
2021/06/08 02:25:07;;;;;;;;;;;22.60;42.70;;;;;;4973381;28;76460;-72
2021/06/08 02:27:33;;;;;;;;;;;22.60;43.00;;;;;;4974637;28;74786;-67
2021/06/08 02:29:59;;;;;;;;;;;22.60;42.70;;;;;;4973534;28;75963;-71
2021/06/08 02:32:27;;;;;;;;;;;22.60;42.80;;;;;;4975262;28;75788;-70
2021/06/08 02:34:53;;;;;;;;;;;22.50;43.00;;;;;;4974818;28;74981;-71
2021/06/08 02:37:19;;;;;;;;;;;22.60;43.30;;;;;;4973111;28;78471;-71
2021/06/08 02:39:45;;;;;;;;;;;22.50;43.00;;;;;;4974657;28;75767;-71
2021/06/08 02:42:12;;;;;;;;;;;22.50;43.30;;;;;;4973568;28;76237;-69
2021/06/08 02:44:39;;;;;;;;;;;22.40;43.20;;;;;;4974706;28;75876;-71
2021/06/08 02:47:05;;;;;;;;;;;22.40;43.30;;;;;;4973079;28;74754;-71
2021/06/08 02:49:31;;;;;;;;;;;22.40;43.50;;;;;;4975206;28;74539;-71
2021/06/08 02:51:57;;;;;;;;;;;22.30;43.70;;;;;;4974450;28;75360;-70
2021/06/08 02:54:23;;;;;;;;;;;22.40;43.40;;;;;;4973479;28;77428;-68
2021/06/08 02:56:49;;;;;;;;;;;22.30;43.90;;;;;;4974077;28;75639;-68
2021/06/08 02:59:15;;;;;;;;;;;22.40;44.00;;;;;;4974524;28;74526;-68
2021/06/08 03:01:45;;;;;;;;;;;22.30;43.90;;;;;;4974426;28;75259;-66
2021/06/08 03:04:12;;;;;;;;;;;22.30;44.10;;;;;;4974176;28;75122;-68
2021/06/08 03:07:01;;;;;;;;;;;22.30;44.20;;;;;;4974666;28;75941;-67
2021/06/08 03:09:34;;;;;;;;;;;22.20;44.10;;;;;;4973328;28;75082;-68
2021/06/08 03:12:01;;;;;;;;;;;22.30;43.80;;;;;;4974656;28;74394;-68
2021/06/08 03:14:27;;;;;;;;;;;22.30;44.70;;;;;;4974074;28;74507;-66
2021/06/08 03:17:01;;;;;;;;;;;22.30;45.20;;;;;;4972826;28;77653;-67
2021/06/08 03:19:31;;;;;;;;;;;22.30;44.90;;;;;;4972527;28;77456;-72
2021/06/08 03:21:59;;;;;;;;;;;22.30;45.00;;;;;;4974079;28;75298;-67
2021/06/08 03:24:26;;;;;;;;;;;22.30;44.20;;;;;;4973972;28;74999;-69
2021/06/08 03:26:52;;;;;;;;;;;22.30;44.30;;;;;;4972516;28;75496;-67
2021/06/08 03:29:18;;;;;;;;;;;22.30;44.30;;;;;;4974157;28;74467;-67
2021/06/08 03:31:45;;;;;;;;;;;22.30;44.10;;;;;;4972395;28;77672;-68
2021/06/08 03:34:15;;;;;;;;;;;22.30;45.10;;;;;;4974384;28;74419;-68
2021/06/08 03:36:48;;;;;;;;;;;22.30;45.90;;;;;;4973862;28;74974;-70
2021/06/08 03:39:14;;;;;;;;;;;22.20;44.90;;;;;;4973690;28;75131;-70
2021/06/08 03:41:41;;;;;;;;;;;22.20;44.70;;;;;;4972111;28;79100;-66
2021/06/08 03:44:07;;;;;;;;;;;22.20;44.80;;;;;;4973577;28;75156;-72
2021/06/08 03:46:34;;;;;;;;;;;22.20;45.40;;;;;;4973829;28;75194;-68
2021/06/08 03:49:01;;;;;;;;;;;22.20;44.30;;;;;;4973675;28;75225;-67
2021/06/08 03:51:27;;;;;;;;;;;22.20;44.40;;;;;;4973752;28;75460;-67
2021/06/08 03:53:52;;;;;;;;;;;22.20;44.30;;;;;;4972159;28;76916;-67
2021/06/08 03:56:18;;;;;;;;;;;22.10;44.60;;;;;;4973973;28;75313;-69
2021/06/08 03:58:44;;;;;;;;;;;22.20;44.20;;;;;;4973286;28;75521;-69
2021/06/08 04:01:10;;;;;;;;;;;22.20;44.30;;;;;;4973354;28;75113;-71
2021/06/08 04:03:36;;;;;;;;;;;22.20;46.10;;;;;;4973600;28;75138;-68
2021/06/08 04:06:01;;;;;;;;;;;22.20;46.00;;;;;;4973400;28;75308;-69
2021/06/08 04:08:28;;;;;;;;;;;22.20;45.70;;;;;;4971869;28;75365;-69
2021/06/08 04:10:54;;;;;;;;;;;22.20;45.10;;;;;;4973396;28;75280;-72
2021/06/08 04:13:20;;;;;;;;;;;22.10;45.90;;;;;;4973223;28;74592;-70
2021/06/08 04:15:47;;;;;;;;;;;22.10;45.90;;;;;;4973575;28;75174;-72
2021/06/08 04:18:13;;;;;;;;;;;22.00;46.00;;;;;;4973509;28;74629;-70
2021/06/08 04:20:39;;;;;;;;;;;22.00;45.60;;;;;;4973517;28;75316;-65
2021/06/08 04:23:05;;;;;;;;;;;21.90;45.50;;;;;;4971628;28;75129;-68
2021/06/08 04:25:31;;;;;;;;;;;21.90;45.50;;;;;;4972858;28;74637;-69
2021/06/08 04:27:56;;;;;;;;;;;21.90;45.70;;;;;;4973466;28;74518;-70
2021/06/08 04:30:22;;;;;;;;;;;21.90;45.80;;;;;;4971611;28;77145;-67
2021/06/08 04:32:49;;;;;;;;;;;21.90;46.00;;;;;;4973283;28;75864;-65
2021/06/08 04:35:15;;;;;;;;;;;21.90;45.90;;;;;;4972906;28;75421;-65
2021/06/08 04:37:41;;;;;;;;;;;21.90;46.10;;;;;;4973170;28;75322;-69
2021/06/08 04:40:08;;;;;;;;;;;21.80;45.90;;;;;;4972839;28;75059;-67
2021/06/08 04:42:36;;;;;;;;;;;21.80;46.20;;;;;;4973280;28;74600;-66
2021/06/08 04:45:02;;;;;;;;;;;21.80;45.90;;;;;;4973162;28;74541;-64
2021/06/08 04:47:28;;;;;;;;;;;21.80;46.00;;;;;;4971381;28;78012;-65
2021/06/08 04:49:53;;;;;;;;;;;21.80;45.60;;;;;;4971591;28;77280;-67
2021/06/08 04:52:19;;;;;;;;;;;21.80;45.80;;;;;;4974996;28;75430;-66
2021/06/08 04:54:45;;;;;;;;;;;21.70;45.70;;;;;;4975103;28;78343;-65
2021/06/08 04:57:12;;;;;;;;;;;21.70;46.10;;;;;;4975979;28;74920;-66
2021/06/08 04:59:40;;;;;;;;;;;21.70;46.20;;;;;;4976406;28;75181;-71
2021/06/08 05:02:08;;;;;;;;;;;21.70;45.70;;;;;;4976554;28;74385;-71
2021/06/08 05:04:36;;;;;;;;;;;21.70;46.20;;;;;;4976139;28;75192;-71
2021/06/08 05:07:03;;;;;;;;;;;21.70;45.70;;;;;;4976268;28;75865;-68
2021/06/08 05:09:31;;;;;;;;;;;21.70;46.00;;;;;;4975989;28;75313;-69
2021/06/08 05:12:02;;;;;;;;;;;21.70;45.90;;;;;;4976455;28;74655;-67
2021/06/08 05:14:29;;;;;;;;;;;21.70;45.70;;;;;;4976046;28;75188;-70
2021/06/08 05:16:56;;;;;;;;;;;21.70;45.80;;;;;;4974948;28;77545;-66
2021/06/08 05:19:22;;;;;;;;;;;21.60;46.10;;;;;;4976230;28;74572;-71
2021/06/08 05:21:48;;;;;;;;;;;21.60;45.90;;;;;;4975754;28;75778;-65
2021/06/08 05:24:14;;;;;;;;;;;21.60;47.70;;;;;;4975753;28;75145;-64
2021/06/08 05:26:47;;;;;;;;;;;21.60;48.70;;;;;;4974294;28;75854;-67
2021/06/08 05:29:17;;;;;;;;;;;21.50;48.30;;;;;;4974815;28;76783;-69
2021/06/08 05:31:42;;;;;;;;;;;21.50;48.00;;;;;;4975622;28;75497;-68
2021/06/08 05:34:08;;;;;;;;;;;21.60;47.90;;;;;;4974581;28;76001;-68
2021/06/08 05:36:35;;;;;;;;;;;21.60;48.40;;;;;;4984887;28;76869;-67
2021/06/08 05:39:02;;;;;;;;;;;21.60;48.10;;;;;;4977380;28;75155;-68
2021/06/08 05:41:27;;;;;;;;;;;21.60;47.90;;;;;;4982548;28;75476;-68
2021/06/08 05:43:53;;;;;;;;;;;21.60;47.90;;;;;;4982526;28;77164;-70
2021/06/08 05:46:19;;;;;;;;;;;21.60;47.70;;;;;;4977339;28;75439;-69
2021/06/08 05:48:45;;;;;;;;;;;21.70;47.40;;;;;;4985164;28;76487;-69
2021/06/08 05:51:11;;;;;;;;;;;21.70;47.80;;;;;;4985151;28;75662;-69
2021/06/08 05:53:38;;;;;;;;;;;21.70;47.80;;;;;;4983613;28;77104;-66
2021/06/08 05:56:04;;;;;;;;;;;21.70;48.00;;;;;;4981778;28;77356;-65
2021/06/08 05:58:30;;;;;;;;;;;21.70;47.50;;;;;;4988766;28;75125;-67
2021/06/08 06:00:56;;;;;;;;;;;21.80;47.50;;;;;;4990520;28;77330;-64
2021/06/08 06:03:23;;;;;;;;;;;21.80;47.60;;;;;;4989308;28;76426;-67
2021/06/08 06:05:49;;;;;;;;;;;21.90;47.80;;;;;;4984430;28;76594;-66
2021/06/08 06:08:15;;;;;;;;;;;21.90;48.10;;;;;;4991665;28;75289;-64
2021/06/08 06:10:41;;;;;;;;;;;21.90;47.30;;;;;;4991799;28;75166;-66
2021/06/08 06:13:07;;;;;;;;;;;22.00;46.80;;;;;;4990900;28;76453;-65
2021/06/08 06:15:33;;;;;;;;;;;22.00;46.40;;;;;;4980457;28;76982;-65
2021/06/08 06:17:59;;;;;;;;;;;22.10;46.50;;;;;;4974640;28;78725;-67
2021/06/08 06:20:25;;;;;;;;;;;22.20;46.30;;;;;;4974920;28;75419;-67
2021/06/08 06:22:51;;;;;;;;;;;22.30;45.80;;;;;;4975503;28;76397;-66
2021/06/08 06:25:17;;;;;;;;;;;22.30;46.10;;;;;;4973856;28;76247;-64
2021/06/08 06:27:43;;;;;;;;;;;22.40;45.90;;;;;;4969989;28;77088;-66
2021/06/08 06:30:10;;;;;;;;;;;22.40;45.80;;;;;;4970223;28;75659;-68
2021/06/08 06:32:37;;;;;;;;;;;22.40;45.30;;;;;;4972148;28;74741;-65
2021/06/08 06:35:06;;;;;;;;;;;22.40;45.30;;;;;;4971431;28;76332;-68
2021/06/08 06:37:32;;;;;;;;;;;22.50;45.10;;;;;;4983775;28;75193;-67
2021/06/08 06:39:59;;;;;;;;;;;22.50;45.20;;;;;;4977502;28;76375;-67
2021/06/08 06:42:36;;;;;;;;;;;22.50;45.40;;;;;;4973296;28;75808;-68
2021/06/08 06:45:03;;;;;;;;;;;22.50;45.50;;;;;;4982830;28;75096;-68
2021/06/08 06:47:30;;;;;;;;;;;22.60;45.30;;;;;;4983823;28;75735;-68
2021/06/08 06:49:55;;;;;;;;;;;22.60;45.10;;;;;;4989292;28;77079;-67
2021/06/08 06:52:21;;;;;;;;;;;22.60;45.10;;;;;;4986263;28;75496;-67
2021/06/08 06:54:47;;;;;;;;;;;22.70;45.00;;;;;;4970443;28;75732;-67
2021/06/08 06:57:12;;;;;;;;;;;22.70;45.30;;;;;;4974786;28;77289;-66
2021/06/08 06:59:38;;;;;;;;;;;22.80;45.20;;;;;;4971375;28;75631;-65
2021/06/08 07:02:05;;;;;;;;;;;22.80;44.90;;;;;;4976591;28;76512;-65
2021/06/08 07:04:31;;;;;;;;;;;22.80;44.90;;;;;;4982031;28;75259;-66
2021/06/08 07:06:57;;;;;;;;;;;22.90;45.10;;;;;;4986170;28;75200;-66
2021/06/08 07:09:23;;;;;;;;;;;22.90;45.20;;;;;;4982260;28;75229;-67
2021/06/08 07:11:50;;;;;;;;;;;23.00;44.60;;;;;;4970724;28;78236;-65
2021/06/08 07:14:17;;;;;;;;;;;23.00;44.50;;;;;;4983002;28;76836;-67
2021/06/08 07:16:43;;;;;;;;;;;23.10;44.50;;;;;;4976340;28;75364;-67
2021/06/08 07:19:11;;;;;;;;;;;23.20;44.60;;;;;;4988556;28;75504;-67
2021/06/08 07:21:36;;;;;;;;;;;23.20;44.50;;;;;;4977439;28;76195;-66
2021/06/08 07:24:04;;;;;;;;;;;23.20;44.30;;;;;;4976466;28;75287;-66
2021/06/08 07:26:30;;;;;;;;;;;23.20;44.20;;;;;;4988191;28;77960;-65
2021/06/08 07:28:55;;;;;;;;;;;23.30;44.30;;;;;;4973768;28;76208;-65
2021/06/08 07:31:44;;;;;;;;;;;23.30;44.20;;;;;;4974353;28;75262;-67
2021/06/08 07:34:12;;;;;;;;;;;23.40;43.90;;;;;;4969747;28;78241;-65
2021/06/08 07:36:45;;;;;;;;;;;23.50;44.20;;;;;;4974065;28;76691;-66
2021/06/08 07:39:18;;;;;;;;;;;23.50;43.80;;;;;;4983820;28;74737;-66
2021/06/08 07:41:46;;;;;;;;;;;23.50;43.60;;;;;;4987880;28;75206;-65
2021/06/08 07:44:14;;;;;;;;;;;23.60;43.60;;;;;;4971673;28;77336;-65
2021/06/08 07:46:41;;;;;;;;;;;23.60;43.50;;;;;;4990006;28;76457;-65
2021/06/08 07:49:07;;;;;;;;;;;23.70;43.50;;;;;;4977959;28;78433;-65
2021/06/08 07:51:34;;;;;;;;;;;23.70;43.40;;;;;;4970206;28;74808;-63
2021/06/08 07:54:00;;;;;;;;;;;23.80;43.10;;;;;;4971032;28;76479;-64
2021/06/08 07:56:27;;;;;;;;;;;23.90;43.30;;;;;;4971421;28;76144;-67
2021/06/08 07:58:53;;;;;;;;;;;23.90;42.10;;;;;;4969975;28;75155;-67
2021/06/08 08:01:20;;;;;;;;;;;23.90;42.10;;;;;;4969173;28;78162;-67
2021/06/08 08:03:47;;;;;;;;;;;24.00;42.10;;;;;;4986650;28;76748;-64
2021/06/08 08:06:14;;;;;;;;;;;24.00;42.00;;;;;;4990575;28;76716;-63
2021/06/08 08:08:40;;;;;;;;;;;24.10;42.20;;;;;;4988592;28;74654;-61
2021/06/08 08:11:10;;;;;;;;;;;24.20;42.20;;;;;;4970541;28;75669;-61
2021/06/08 08:13:36;;;;;;;;;;;24.30;42.00;;;;;;4968340;28;75249;-61
2021/06/08 08:16:05;;;;;;;;;;;24.40;42.00;;;;;;4971024;28;74868;-64
2021/06/08 08:18:31;;;;;;;;;;;24.50;41.70;;;;;;4969503;28;75101;-61
2021/06/08 08:20:57;;;;;;;;;;;24.50;40.90;;;;;;4977984;28;75609;-61
2021/06/08 08:23:25;;;;;;;;;;;24.60;41.00;;;;;;4971538;28;75443;-68
2021/06/08 08:25:50;;;;;;;;;;;24.60;40.10;;;;;;4969552;28;75170;-63
2021/06/08 08:28:17;;;;;;;;;;;24.70;40.60;;;;;;4983346;28;75422;-65
2021/06/08 08:30:42;;;;;;;;;;;24.80;39.70;;;;;;4988834;28;75799;-66
2021/06/08 08:33:08;;;;;;;;;;;24.90;39.10;;;;;;4990336;28;75198;-64
2021/06/08 08:35:35;;;;;;;;;;;24.90;39.20;;;;;;4987041;28;76943;-62
2021/06/08 08:38:01;;;;;;;;;;;24.90;39.90;;;;;;4988079;28;76287;-68
2021/06/08 08:40:27;;;;;;;;;;;25.10;39.70;;;;;;4989497;28;75847;-62
2021/06/08 08:42:53;;;;;;;;;;;25.20;39.60;;;;;;4981296;28;75801;-63
2021/06/08 08:45:20;;;;;;;;;;;25.30;39.60;;;;;;4988321;28;76845;-61
2021/06/08 08:47:45;;;;;;;;;;;25.40;39.10;;;;;;4987092;28;75249;-66
2021/06/08 08:50:12;;;;;;;;;;;25.50;38.60;;;;;;4989453;28;76228;-60
2021/06/08 08:52:39;;;;;;;;;;;25.60;38.70;;;;;;4989547;28;75374;-62
2021/06/08 08:55:05;;;;;;;;;;;25.70;38.30;;;;;;4988684;28;74740;-67
2021/06/08 08:57:31;;;;;;;;;;;25.80;43.80;;;;;;4983132;28;74825;-66
2021/06/08 09:00:02;;;;;;;;;;;25.80;40.30;;;;;;4969972;28;75568;-66
2021/06/08 09:02:28;;;;;;;;;;;25.80;41.90;;;;;;4968510;28;77350;-64
2021/06/08 09:04:54;;;;;;;;;;;25.90;40.80;;;;;;4969406;28;75144;-63
2021/06/08 09:07:19;;;;;;;;;;;26.00;40.70;;;;;;4969826;28;75023;-64
2021/06/08 09:09:46;;;;;;;;;;;26.10;40.40;;;;;;4966971;28;96493;-64
2021/06/08 09:12:12;;;;;;;;;;;26.20;40.30;;;;;;4969797;28;75816;-64
2021/06/08 09:14:39;;;;;;;;;;;26.20;40.30;;;;;;4970884;28;74769;-64
2021/06/08 09:17:06;;;;;;;;;;;26.30;40.80;;;;;;4986643;28;76960;-63
2021/06/08 09:19:31;;;;;;;;;;;26.50;40.10;;;;;;4987310;28;77987;-63
2021/06/08 09:21:57;;;;;;;;;;;26.60;38.90;;;;;;4988661;28;76414;-64
2021/06/08 09:24:23;;;;;;;;;;;26.60;38.20;;;;;;4985813;28;77314;-64
2021/06/08 09:26:53;;;;;;;;;;;26.60;37.80;;;;;;4977448;28;75254;-64
2021/06/08 09:29:28;;;;;;;;;;;26.70;38.90;;;;;;4984487;28;77145;-64
2021/06/08 09:32:12;;;;;;;;;;;26.80;38.20;;;;;;4987616;28;76589;-64
2021/06/08 09:34:39;;;;;;;;;;;26.90;38.10;;;;;;4986346;28;77323;-64
2021/06/08 09:37:05;;;;;;;;;;;27.00;38.30;;;;;;4990036;28;75246;-65
2021/06/08 09:39:31;;;;;;;;;;;27.00;37.30;;;;;;4992117;28;74808;-65
2021/06/08 09:41:56;;;;;;;;;;;27.10;37.20;;;;;;4991998;28;74980;-65
2021/06/08 09:44:22;;;;;;;;;;;27.20;36.90;;;;;;4990731;28;77494;-65
2021/06/08 09:46:49;;;;;;;;;;;27.40;37.70;;;;;;4992220;28;75214;-65
2021/06/08 09:49:16;;;;;;;;;;;27.50;37.50;;;;;;4977433;28;75190;-64
2021/06/08 09:51:51;;;;;;;;;;;27.50;37.70;;;;;;4987291;28;77778;-65
2021/06/08 09:54:25;;;;;;;;;;;27.60;36.00;;;;;;4990739;28;75617;-65
2021/06/08 09:56:51;;;;;;;;;;;27.70;36.80;;;;;;4988283;28;77091;-65
2021/06/08 09:59:38;;;;;;;;;;;27.80;36.30;;;;;;4988971;28;77266;-65
2021/06/08 10:02:18;;;;;;;;;;;27.90;36.80;;;;;;4989219;28;78119;-65
2021/06/08 10:04:44;;;;;;;;;;;28.00;36.90;;;;;;4991298;28;76156;-66
2021/06/08 10:07:24;;;;;;;;;;;28.00;35.90;;;;;;4972685;28;76545;-65
2021/06/08 10:10:02;;;;;;;;;;;28.20;35.20;;;;;;4970874;28;75609;-65
2021/06/08 10:12:27;;;;;;;;;;;28.30;35.30;;;;;;4970680;28;76756;-64
2021/06/08 10:14:53;;;;;;;;;;;28.40;36.10;;;;;;4971281;28;75625;-64
2021/06/08 10:17:27;;;;;;;;;;;28.50;34.40;;;;;;4988418;28;75191;-64
2021/06/08 10:19:53;;;;;;;;;;;28.50;34.40;;;;;;4990535;28;76416;-65
2021/06/08 10:22:29;;;;;;;;;;;28.60;34.40;;;;;;4990030;28;76665;-62
2021/06/08 10:24:55;;;;;;;;;;;28.70;34.80;;;;;;4990395;28;77214;-62
2021/06/08 10:27:20;;;;;;;;;;;28.80;34.30;;;;;;4990614;28;76101;-64
2021/06/08 10:29:48;;;;;;;;;;;28.90;35.30;;;;;;4971730;28;76656;-65
2021/06/08 10:32:13;;;;;;;;;;;29.00;35.00;;;;;;4969977;28;75799;-65
2021/06/08 10:34:40;;;;;;;;;;;29.20;34.50;;;;;;4970732;28;77314;-65
2021/06/08 10:37:06;;;;;;;;;;;29.40;33.00;;;;;;4971585;28;77558;-65
2021/06/08 10:39:32;;;;;;;;;;;29.50;33.80;;;;;;4971594;28;75792;-65
2021/06/08 10:41:59;;;;;;;;;;;29.70;33.50;;;;;;4970018;28;76409;-65
2021/06/08 10:44:26;;;;;;;;;;;29.90;33.90;;;;;;4970181;28;78521;-65
2021/06/08 10:46:56;;;;;;;;;;;30.10;33.20;;;;;;4971888;28;75425;-65
2021/06/08 10:49:36;;;;;;;;;;;30.40;33.30;;;;;;4970000;28;76819;-66
2021/06/08 10:52:02;;;;;;;;;;;30.60;32.20;;;;;;4970255;28;75177;-65
2021/06/08 10:54:28;;;;;;;;;;;31.00;32.40;;;;;;4971520;28;74751;-65
2021/06/08 10:56:58;;;;;;;;;;;31.30;31.70;;;;;;4971321;28;75200;-65
2021/06/08 10:59:34;;;;;;;;;;;31.80;31.50;;;;;;4970129;28;78242;-68
2021/06/08 11:01:59;;;;;;;;;;;32.30;29.90;;;;;;4984253;28;75458;-69
2021/06/08 11:04:45;;;;;;;;;;;32.80;30.30;;;;;;4990638;28;75219;-68
2021/06/08 11:07:10;;;;;;;;;;;33.30;28.00;;;;;;4990413;28;75421;-65
2021/06/08 11:09:37;;;;;;;;;;;34.00;28.10;;;;;;4990864;28;77336;-65
2021/06/08 11:12:09;;;;;;;;;;;34.70;27.40;;;;;;4990990;28;75650;-65
2021/06/08 11:17:06;;;;;;;;;;;36.40;25.90;;;;;;4972036;28;75023;-66
2021/06/08 11:19:41;;;;;;;;;;;37.40;24.90;;;;;;4967557;28;77710;-66
2021/06/08 11:22:08;;;;;;;;;;;38.40;24.00;;;;;;4971483;28;75210;-66
2021/06/08 11:24:34;;;;;;;;;;;39.30;22.40;;;;;;4971548;28;75983;-67
2021/06/08 11:27:00;;;;;;;;;;;40.20;21.90;;;;;;4972262;28;75885;-67
2021/06/08 11:29:41;;;;;;;;;;;41.30;20.60;;;;;;4969632;28;77164;-66
2021/06/08 11:32:06;;;;;;;;;;;42.30;19.00;;;;;;4970726;28;75012;-65
2021/06/08 11:34:52;;;;;;;;;;;43.10;18.60;;;;;;4969465;28;77002;-63
2021/06/08 11:37:36;;;;;;;;;;;43.80;18.50;;;;;;4970424;28;75324;-67
2021/06/08 11:40:22;;;;;;;;;;;44.50;17.80;;;;;;4975615;28;75577;-67
2021/06/08 11:42:47;;;;;;;;;;;45.20;17.60;;;;;;4986357;28;76266;-65
2021/06/08 11:45:32;;;;;;;;;;;45.70;16.10;;;;;;4990735;28;75210;-65
2021/06/08 11:47:58;;;;;;;;;;;46.20;17.00;;;;;;4988679;28;77964;-63
2021/06/08 11:50:41;;;;;;;;;;;46.60;16.40;;;;;;4983554;28;75272;-65
2021/06/08 11:53:08;;;;;;;;;;;47.20;16.20;;;;;;4971777;28;78325;-65
2021/06/08 11:55:34;;;;;;;;;;;47.20;15.50;;;;;;4968800;28;77238;-67
2021/06/08 11:58:00;;;;;;;;;;;47.60;16.00;;;;;;4976162;28;75659;-65
2021/06/08 12:00:41;;;;;;;;;;;47.70;15.20;;;;;;4987735;28;76091;-65
2021/06/08 12:03:30;;;;;;;;;;;47.90;15.80;;;;;;4988375;28;76269;-65
2021/06/08 12:05:57;;;;;;;;;;;48.50;15.60;;;;;;4989362;28;74724;-65
2021/06/08 12:08:27;;;;;;;;;;;49.00;15.40;;;;;;4988036;28;77061;-66
2021/06/08 12:10:53;;;;;;;;;;;48.50;14.80;;;;;;4990295;28;75204;-66
2021/06/08 12:13:28;;;;;;;;;;;48.00;14.70;;;;;;4990034;28;75124;-67
2021/06/08 12:15:54;;;;;;;;;;;47.20;14.00;;;;;;4990660;28;75163;-67
2021/06/08 12:18:25;;;;;;;;;;;47.00;15.00;;;;;;4989656;28;75638;-66
2021/06/08 12:20:51;;;;;;;;;;;48.20;14.40;;;;;;4989825;28;75582;-65
2021/06/08 12:23:29;;;;;;;;;;;48.40;14.60;;;;;;4987780;28;74732;-65
2021/06/08 12:26:13;;;;;;;;;;;48.10;14.30;;;;;;4988757;28;75176;-66
2021/06/08 12:28:39;;;;;;;;;;;47.90;14.10;;;;;;4992473;28;75602;-65
2021/06/08 12:31:12;;;;;;;;;;;48.30;13.90;;;;;;4992251;28;75165;-66
2021/06/08 12:33:38;;;;;;;;;;;49.40;13.80;;;;;;4992737;28;74995;-67
2021/06/08 12:36:04;;;;;;;;;;;50.80;12.60;;;;;;4992847;28;74461;-67
2021/06/08 12:38:30;;;;;;;;;;;51.10;13.00;;;;;;4991816;28;74754;-69
2021/06/08 12:41:00;;;;;;;;;;;51.40;13.20;;;;;;4992218;28;76224;-66
2021/06/08 12:43:26;;;;;;;;;;;51.60;13.10;;;;;;4992308;28;75138;-67
2021/06/08 12:45:58;;;;;;;;;;;51.70;13.00;;;;;;4990812;28;78418;-68
2021/06/08 12:48:24;;;;;;;;;;;51.60;13.00;;;;;;4992141;28;75049;-68
2021/06/08 12:50:49;;;;;;;;;;;51.50;13.10;;;;;;4985816;28;75402;-69
2021/06/08 12:53:19;;;;;;;;;;;51.40;12.70;;;;;;4986718;28;76013;-71
2021/06/08 12:55:47;;;;;;;;;;;51.60;13.00;;;;;;4988573;28;75315;-72
2021/06/08 12:58:12;;;;;;;;;;;52.20;13.10;;;;;;4985944;28;75066;-68
2021/06/08 13:00:38;;;;;;;;;;;52.90;12.80;;;;;;4977800;28;76461;-66
2021/06/08 13:03:05;;;;;;;;;;;53.50;13.20;;;;;;4974728;28;75152;-64
2021/06/08 13:05:31;;;;;;;;;;;54.40;12.60;;;;;;4971127;28;77896;-64
2021/06/08 13:07:57;;;;;;;;;;;55.20;12.60;;;;;;4980713;28;75025;-66
2021/06/08 13:10:27;;;;;;;;;;;55.70;12.60;;;;;;4973877;28;77138;-65
2021/06/08 13:12:54;;;;;;;;;;;55.70;12.50;;;;;;4973688;28;75152;-68
2021/06/08 13:15:33;;;;;;;;;;;55.60;12.30;;;;;;4975961;28;75168;-65
2021/06/08 13:18:09;;;;;;;;;;;54.40;12.60;;;;;;4973780;28;75031;-66
2021/06/08 13:20:44;;;;;;;;;;;52.30;12.60;;;;;;4974284;28;75436;-70
2021/06/08 13:23:22;;;;;;;;;;;52.00;13.20;;;;;;4974224;28;75776;-69
2021/06/08 13:25:56;;;;;;;;;;;52.40;12.50;;;;;;4974102;28;75238;-73
2021/06/08 13:28:26;;;;;;;;;;;52.70;13.00;;;;;;4975065;28;74564;-72
2021/06/08 13:31:00;;;;;;;;;;;53.70;12.60;;;;;;4975130;28;75648;-72
2021/06/08 13:33:26;;;;;;;;;;;54.00;12.60;;;;;;4975426;28;74989;-73
2021/06/08 13:35:52;;;;;;;;;;;54.40;12.50;;;;;;4975402;28;75444;-69
2021/06/08 13:38:20;;;;;;;;;;;54.90;12.40;;;;;;4975395;28;75194;-66
2021/06/08 13:40:46;;;;;;;;;;;54.90;12.40;;;;;;4975366;28;76587;-66
2021/06/08 13:43:15;;;;;;;;;;;54.90;12.00;;;;;;4974135;28;75320;-65
2021/06/08 13:45:45;;;;;;;;;;;52.10;13.10;;;;;;4974282;28;76271;-65
2021/06/08 13:48:33;;;;;;;;;;;50.40;13.50;;;;;;4975346;28;74650;-66
2021/06/08 13:51:11;;;;;;;;;;;51.50;13.40;;;;;;4974558;28;77458;-65
2021/06/08 13:53:36;;;;;;;;;;;52.60;12.40;;;;;;4975058;28;76367;-65
2021/06/08 13:56:04;;;;;;;;;;;52.70;12.30;;;;;;4975673;28;74472;-66
2021/06/08 14:01:19;;;;;;;;;;;52.00;11.60;;;;;;4976074;28;74845;-67
2021/06/08 14:04:00;;;;;;;;;;;51.20;11.00;;;;;;4974654;28;76268;-67
2021/06/08 14:06:25;;;;;;;;;;;50.80;11.30;;;;;;4975589;28;74422;-72
2021/06/08 14:08:55;;;;;;;;;;;50.80;11.90;;;;;;4975018;28;74678;-70
2021/06/08 14:11:34;;;;;;;;;;;51.00;11.70;;;;;;4975168;28;75592;-73
2021/06/08 14:13:59;;;;;;;;;;;51.40;11.80;;;;;;4975154;28;75217;-72
2021/06/08 14:16:26;;;;;;;;;;;51.70;11.70;;;;;;4974838;28;75351;-65
2021/06/08 14:18:52;;;;;;;;;;;51.10;11.70;;;;;;4974965;28;75706;-68
2021/06/08 14:21:18;;;;;;;;;;;51.00;12.10;;;;;;4975094;28;75006;-70
2021/06/08 14:23:43;;;;;;;;;;;51.50;11.90;;;;;;4973666;28;75121;-72
2021/06/08 14:26:12;;;;;;;;;;;51.90;12.50;;;;;;4974221;28;76405;-67